Time;durP1;ratioP1;P1;durP2;ratioP2;P2;SDS_P1;SDS_P2;PMS_P1;PMS_P2;Temp;Humidity;BMP_temperature;BMP_pressure;BME280_temperature;BME280_humidity;BME280_pressure;Samples;Min_cycle;Max_cycle;Signal;HPM_P1;HPM_P2
2022/08/26 00:01:22;;;;;;;8.40;5.77;;;22.50;1.00;;;;;;5049908;28;20415;-77
2022/08/26 00:03:47;;;;;;;9.77;6.13;;;22.40;1.00;;;;;;5040303;28;20213;-76
2022/08/26 00:06:13;;;;;;;8.43;6.10;;;22.50;1.00;;;;;;5049516;28;20192;-77
2022/08/26 00:08:39;;;;;;;9.93;6.67;;;22.50;1.00;;;;;;5041174;28;20200;-76
2022/08/26 00:11:06;;;;;;;7.43;6.10;;;22.60;1.00;;;;;;5049788;28;20169;-77
2022/08/26 00:13:32;;;;;;;16.43;7.00;;;22.50;1.00;;;;;;5044533;28;20538;-76
2022/08/26 00:15:57;;;;;;;13.63;6.70;;;22.40;1.00;;;;;;5049537;28;20419;-77
2022/08/26 00:18:23;;;;;;;11.80;6.77;;;22.40;1.00;;;;;;5041828;28;20436;-76
2022/08/26 00:20:50;;;;;;;9.83;6.43;;;22.40;1.00;;;;;;5035998;28;20201;-76
2022/08/26 00:23:16;;;;;;;8.80;6.30;;;22.40;1.00;;;;;;5045187;28;20196;-77
2022/08/26 00:25:42;;;;;;;7.57;5.73;;;22.40;1.00;;;;;;5048241;28;20421;-77
2022/08/26 00:28:07;;;;;;;8.53;5.77;;;22.40;1.00;;;;;;5046797;28;20478;-77
2022/08/26 00:30:33;;;;;;;9.40;7.10;;;22.40;1.00;;;;;;5049519;28;20256;-76
2022/08/26 00:32:59;;;;;;;9.20;6.80;;;22.40;1.00;;;;;;5043410;28;20181;-77
2022/08/26 00:35:26;;;;;;;7.83;6.43;;;22.40;1.00;;;;;;5048208;28;20165;-77
2022/08/26 00:37:52;;;;;;;7.97;6.40;;;22.40;1.00;;;;;;5048274;28;20773;-77
2022/08/26 00:40:25;;;;;;;9.77;6.20;;;22.40;1.00;;;;;;5046958;28;20423;-77
2022/08/26 00:42:50;;;;;;;8.17;6.13;;;22.40;1.00;;;;;;5042750;28;20435;-76
2022/08/26 00:45:17;;;;;;;8.30;6.60;;;22.40;1.00;;;;;;5047310;28;20446;-76
2022/08/26 00:47:47;;;;;;;10.53;6.90;;;22.50;1.00;;;;;;5044626;28;20516;-77
2022/08/26 00:50:17;;;;;;;10.67;6.63;;;22.40;1.00;;;;;;5040992;28;20431;-77
2022/08/26 00:52:44;;;;;;;10.73;6.63;;;22.30;1.00;;;;;;5048113;28;20411;-77
2022/08/26 00:55:29;;;;;;;11.03;6.47;;;22.30;1.00;;;;;;5056686;28;20458;-77
2022/08/26 00:57:54;;;;;;;10.63;6.53;;;22.30;1.00;;;;;;5049972;28;20423;-77
2022/08/26 01:00:25;;;;;;;9.50;6.67;;;22.20;1.00;;;;;;5045033;28;20526;-77
2022/08/26 01:02:51;;;;;;;9.27;7.03;;;22.20;1.00;;;;;;5042903;28;20193;-76
2022/08/26 01:05:18;;;;;;;10.20;6.60;;;22.20;1.00;;;;;;5038810;28;20473;-76
2022/08/26 01:07:44;;;;;;;9.87;6.80;;;22.30;1.00;;;;;;5049450;28;20216;-76
2022/08/26 01:10:19;;;;;;;7.90;6.10;;;22.20;1.00;;;;;;5055911;28;20410;-76
2022/08/26 01:12:48;;;;;;;8.73;6.40;;;22.10;1.00;;;;;;5046440;28;20427;-76
2022/08/26 01:15:29;;;;;;;10.33;7.27;;;22.10;1.00;;;;;;5051879;28;20435;-76
2022/08/26 01:17:56;;;;;;;10.63;6.87;;;22.00;1.00;;;;;;5039416;28;20442;-76
2022/08/26 01:20:30;;;;;;;7.70;6.43;;;22.00;1.00;;;;;;5043471;28;20432;-76
2022/08/26 01:23:05;;;;;;;12.03;7.10;;;21.90;1.00;;;;;;5053940;28;20422;-76
2022/08/26 01:25:33;;;;;;;8.77;7.13;;;22.00;1.00;;;;;;5047454;28;20422;-76
2022/08/26 01:28:04;;;;;;;14.10;6.73;;;22.00;1.00;;;;;;5043959;28;20479;-76
2022/08/26 01:30:31;;;;;;;12.77;6.37;;;22.00;1.00;;;;;;5045261;28;20913;-76
2022/08/26 01:32:59;;;;;;;17.50;6.67;;;22.10;1.00;;;;;;5044535;28;20502;-76
2022/08/26 01:35:25;;;;;;;7.60;6.40;;;21.90;1.00;;;;;;5042834;28;20983;-76
2022/08/26 01:37:53;;;;;;;7.97;6.77;;;21.80;1.00;;;;;;5045400;28;20416;-76
2022/08/26 01:40:24;;;;;;;9.17;7.27;;;21.80;1.00;;;;;;5041467;28;20415;-76
2022/08/26 01:42:51;;;;;;;13.23;7.43;;;21.70;1.00;;;;;;5046769;28;20422;-75
2022/08/26 01:45:21;;;;;;;11.30;6.87;;;21.60;1.00;;;;;;5046663;28;20836;-76
2022/08/26 01:47:48;;;;;;;8.70;6.80;;;21.60;1.00;;;;;;5049329;28;20541;-76
2022/08/26 01:50:21;;;;;;;14.40;7.03;;;21.50;1.00;;;;;;5038099;28;20434;-77
2022/08/26 01:52:48;;;;;;;15.57;7.20;;;21.40;1.00;;;;;;5067102;28;20403;-76
2022/08/26 01:55:16;;;;;;;9.50;6.60;;;21.40;1.00;;;;;;5050669;28;20451;-76
2022/08/26 01:57:44;;;;;;;11.00;7.40;;;21.30;1.00;;;;;;5047095;28;20447;-77
2022/08/26 02:00:14;;;;;;;18.43;8.40;;;21.10;1.00;;;;;;5043715;28;20470;-76
2022/08/26 02:02:42;;;;;;;12.90;7.00;;;21.00;1.00;;;;;;5047203;28;20963;-77
2022/08/26 02:05:12;;;;;;;13.90;7.23;;;21.00;1.00;;;;;;5048285;28;20802;-77
2022/08/26 02:07:39;;;;;;;12.30;7.70;;;21.10;1.00;;;;;;5039962;28;20471;-76
2022/08/26 02:10:05;;;;;;;10.50;7.80;;;21.10;1.00;;;;;;5052869;28;20411;-77
2022/08/26 02:12:31;;;;;;;14.23;7.70;;;21.00;1.00;;;;;;5048128;28;20431;-77
2022/08/26 02:15:00;;;;;;;13.27;7.93;;;20.90;1.00;;;;;;5050890;28;20702;-76
2022/08/26 02:17:36;;;;;;;11.60;7.93;;;20.90;1.00;;;;;;5048276;28;20450;-77
2022/08/26 02:20:02;;;;;;;12.30;8.47;;;20.90;1.00;;;;;;5038259;28;20466;-77
2022/08/26 02:22:30;;;;;;;10.13;7.27;;;20.90;1.00;;;;;;5046518;28;20403;-77
2022/08/26 02:25:20;;;;;;;11.77;7.73;;;20.80;1.00;;;;;;5046641;28;20478;-77
2022/08/26 02:27:46;;;;;;;14.40;8.77;;;20.80;1.00;;;;;;5052393;28;20516;-77
2022/08/26 02:30:16;;;;;;;15.93;7.57;;;20.70;1.00;;;;;;5045553;28;20640;-76
2022/08/26 02:32:43;;;;;;;16.57;7.60;;;20.60;1.00;;;;;;5050129;28;20502;-78
2022/08/26 02:35:10;;;;;;;12.13;7.67;;;20.70;1.00;;;;;;5044568;28;20534;-77
2022/08/26 02:37:36;;;;;;;13.03;8.37;;;20.80;1.00;;;;;;5051965;28;20480;-76
2022/08/26 02:40:04;;;;;;;10.53;8.33;;;20.90;1.00;;;;;;5042911;28;20888;-77
2022/08/26 02:42:29;;;;;;;12.40;7.53;;;20.90;1.00;;;;;;5047505;28;20647;-76
2022/08/26 02:44:55;;;;;;;15.23;7.77;;;20.90;1.00;;;;;;5043161;28;20477;-77
2022/08/26 02:47:20;;;;;;;11.30;7.77;;;21.00;1.00;;;;;;5049432;28;20184;-77
2022/08/26 02:49:46;;;;;;;10.37;7.90;;;21.00;1.00;;;;;;5045508;28;20177;-77
2022/08/26 02:52:12;;;;;;;10.43;7.87;;;21.00;1.00;;;;;;5046299;28;20176;-77
2022/08/26 02:54:37;;;;;;;10.33;8.07;;;21.00;1.00;;;;;;5059547;28;20212;-77
2022/08/26 02:57:04;;;;;;;9.00;6.80;;;21.00;1.00;;;;;;5050992;28;20782;-76
2022/08/26 02:59:30;;;;;;;9.77;8.33;;;21.00;1.00;;;;;;5048043;28;20291;-77
2022/08/26 03:01:56;;;;;;;12.80;8.20;;;21.10;1.00;;;;;;5050208;28;20841;-77
2022/08/26 03:04:22;;;;;;;10.23;8.13;;;20.90;1.00;;;;;;5044439;28;20299;-77
2022/08/26 03:06:49;;;;;;;12.77;8.60;;;20.90;1.00;;;;;;5045404;28;20509;-77
2022/08/26 03:09:15;;;;;;;10.07;8.07;;;21.00;1.00;;;;;;5044666;28;20201;-77
2022/08/26 03:11:41;;;;;;;10.57;8.00;;;20.90;1.00;;;;;;5051094;28;20411;-77
2022/08/26 03:14:07;;;;;;;9.20;7.90;;;20.80;1.00;;;;;;5045483;28;20450;-76
2022/08/26 03:16:34;;;;;;;9.43;7.87;;;20.80;1.00;;;;;;5050528;28;20268;-77
2022/08/26 03:19:01;;;;;;;12.97;8.53;;;20.80;1.00;;;;;;5045261;28;20658;-76
2022/08/26 03:21:27;;;;;;;10.23;8.47;;;20.40;1.00;;;;;;5046002;28;20434;-76
2022/08/26 03:23:53;;;;;;;10.40;7.80;;;20.60;1.00;;;;;;5045903;28;20509;-77
2022/08/26 03:26:18;;;;;;;13.50;7.80;;;20.60;1.00;;;;;;5049149;28;20172;-76
2022/08/26 03:31:28;;;;;;;16.73;8.60;;;20.60;1.00;;;;;;5047418;28;20536;-77
2022/08/26 03:33:54;;;;;;;9.10;8.10;;;20.50;1.00;;;;;;5043284;28;20495;-77
2022/08/26 03:36:21;;;;;;;12.93;8.57;;;20.50;1.00;;;;;;5050599;28;20995;-76
2022/08/26 03:38:46;;;;;;;13.93;8.50;;;20.50;1.00;;;;;;5042368;28;20178;-77
2022/08/26 03:41:12;;;;;;;9.40;8.10;;;20.40;1.00;;;;;;5049028;28;20918;-78
2022/08/26 03:43:39;;;;;;;12.27;7.50;;;20.40;1.00;;;;;;5044586;28;20209;-77
2022/08/26 03:46:06;;;;;;;10.40;7.77;;;20.40;1.00;;;;;;5049986;28;20604;-78
2022/08/26 03:48:32;;;;;;;16.33;8.00;;;20.40;1.00;;;;;;5045346;28;20463;-78
2022/08/26 03:50:59;;;;;;;10.87;7.50;;;20.40;1.00;;;;;;5039301;28;20462;-77
2022/08/26 03:53:24;;;;;;;11.17;8.07;;;20.40;1.00;;;;;;5049381;28;20459;-77
2022/08/26 03:55:50;;;;;;;11.70;7.53;;;20.40;1.00;;;;;;5048468;28;20426;-77
2022/08/26 03:58:15;;;;;;;10.40;8.17;;;20.40;1.00;;;;;;5047900;28;20177;-78
2022/08/26 04:00:41;;;;;;;14.23;9.00;;;20.50;1.00;;;;;;5050200;28;20200;-78
2022/08/26 04:03:07;;;;;;;11.57;7.97;;;20.40;1.00;;;;;;5038251;28;20270;-77
2022/08/26 04:05:32;;;;;;;11.67;8.40;;;20.40;1.00;;;;;;5049751;28;20574;-78
2022/08/26 04:07:58;;;;;;;17.20;8.77;;;20.40;1.00;;;;;;5046338;28;20243;-77
2022/08/26 04:10:26;;;;;;;9.77;8.10;;;20.40;1.00;;;;;;5045280;28;20576;-78
2022/08/26 04:12:52;;;;;;;13.47;7.90;;;20.40;1.00;;;;;;5048882;28;20175;-77
2022/08/26 04:15:20;;;;;;;13.10;8.93;;;20.30;1.00;;;;;;5046085;28;20470;-77
2022/08/26 04:17:46;;;;;;;16.20;8.30;;;20.30;1.00;;;;;;5041521;28;20425;-77
2022/08/26 04:20:12;;;;;;;12.30;8.53;;;20.30;1.00;;;;;;5042423;28;20435;-77
2022/08/26 04:22:41;;;;;;;16.33;8.73;;;20.30;1.00;;;;;;5048315;28;20651;-78
2022/08/26 04:25:08;;;;;;;11.60;8.30;;;20.40;1.00;;;;;;5054500;28;20533;-78
2022/08/26 04:27:33;;;;;;;12.10;8.57;;;20.40;1.00;;;;;;5050388;28;20455;-78
2022/08/26 04:29:59;;;;;;;10.10;8.43;;;20.30;1.00;;;;;;5047868;28;20431;-77
2022/08/26 04:32:24;;;;;;;11.83;8.27;;;20.40;1.00;;;;;;5044830;28;20251;-76
2022/08/26 04:34:50;;;;;;;13.20;8.40;;;20.40;1.00;;;;;;5047026;28;20557;-77
2022/08/26 04:37:16;;;;;;;10.80;8.63;;;20.40;1.00;;;;;;5052278;28;20822;-78
2022/08/26 04:39:41;;;;;;;12.30;8.17;;;20.40;1.00;;;;;;5045268;28;20205;-77
2022/08/26 04:42:07;;;;;;;13.37;9.00;;;20.40;1.00;;;;;;5051058;28;20169;-77
2022/08/26 04:44:35;;;;;;;14.00;7.83;;;20.30;1.00;;;;;;5048070;28;20188;-78
2022/08/26 04:47:00;;;;;;;13.43;8.70;;;20.30;1.00;;;;;;5042731;28;20199;-77
2022/08/26 04:49:26;;;;;;;12.17;9.00;;;20.40;1.00;;;;;;5042128;28;20491;-77
2022/08/26 04:51:52;;;;;;;14.23;9.23;;;20.40;1.00;;;;;;5044544;28;20272;-78
2022/08/26 04:54:18;;;;;;;12.60;8.80;;;20.40;1.00;;;;;;5051430;28;20626;-77
2022/08/26 04:56:46;;;;;;;10.90;8.87;;;21.40;1.00;;;;;;5051800;28;20411;-78
2022/08/26 04:59:14;;;;;;;14.60;8.90;;;20.60;1.00;;;;;;5048475;28;20247;-78
2022/08/26 05:01:49;;;;;;;10.60;9.10;;;20.70;1.00;;;;;;5043367;28;20498;-77
2022/08/26 05:04:16;;;;;;;12.20;9.30;;;20.80;1.00;;;;;;5043938;28;20532;-79
2022/08/26 05:06:41;;;;;;;11.37;8.90;;;20.80;1.00;;;;;;5044197;28;20423;-78
2022/08/26 05:09:07;;;;;;;15.03;9.20;;;20.80;1.00;;;;;;5042579;28;20981;-79
2022/08/26 05:11:33;;;;;;;11.90;9.17;;;20.90;1.00;;;;;;5043001;28;20244;-79
2022/08/26 05:13:58;;;;;;;14.10;8.80;;;20.90;1.00;;;;;;5049092;28;20889;-78
2022/08/26 05:16:24;;;;;;;11.03;8.70;;;20.90;1.00;;;;;;5035953;28;20177;-79
2022/08/26 05:18:51;;;;;;;13.90;10.00;;;21.00;1.00;;;;;;5037988;28;20189;-79
2022/08/26 05:21:20;;;;;;;11.17;9.20;;;21.00;1.00;;;;;;5048774;28;20264;-78
2022/08/26 05:23:50;;;;;;;14.53;8.80;;;21.00;1.00;;;;;;5046182;28;20771;-78
2022/08/26 05:26:16;;;;;;;12.83;9.20;;;21.10;1.00;;;;;;5044432;28;20523;-78
2022/08/26 05:28:41;;;;;;;12.90;9.00;;;21.20;1.00;;;;;;5045288;28;20470;-79
2022/08/26 05:31:20;;;;;;;13.77;9.33;;;21.30;1.00;;;;;;5041288;28;20477;-79
2022/08/26 05:33:46;;;;;;;15.90;8.80;;;21.40;1.00;;;;;;5037563;28;20466;-78
2022/08/26 05:36:15;;;;;;;12.73;9.10;;;21.50;1.00;;;;;;5037661;28;20837;-78
2022/08/26 05:38:42;;;;;;;11.87;9.00;;;21.70;1.00;;;;;;5045340;28;20432;-79
2022/08/26 05:41:23;;;;;;;10.90;9.37;;;21.80;1.00;;;;;;5040696;28;20445;-78
2022/08/26 05:43:50;;;;;;;12.40;9.20;;;21.90;1.00;;;;;;5045221;28;20677;-78
2022/08/26 05:46:16;;;;;;;13.33;9.30;;;22.00;1.00;;;;;;5046130;28;20453;-78
2022/08/26 05:48:41;;;;;;;14.43;9.47;;;22.10;1.00;;;;;;5039965;28;20476;-79
2022/08/26 05:51:09;;;;;;;15.67;9.10;;;22.20;1.00;;;;;;5035734;28;20427;-76
2022/08/26 05:53:36;;;;;;;15.02;9.20;;;22.30;1.00;;;;;;5041048;28;20437;-77
2022/08/26 05:56:03;;;;;;;16.13;9.40;;;22.50;1.00;;;;;;5046650;28;20283;-82
2022/08/26 05:58:29;;;;;;;20.47;9.70;;;22.70;1.00;;;;;;5044391;28;20443;-81
2022/08/26 06:00:56;;;;;;;12.97;9.97;;;22.70;1.00;;;;;;5049068;28;20447;-82
2022/08/26 06:03:22;;;;;;;12.60;8.90;;;22.80;1.00;;;;;;5047030;28;20459;-84
2022/08/26 06:05:47;;;;;;;15.83;9.93;;;22.90;1.00;;;;;;5054355;28;20494;-82
2022/08/26 06:08:13;;;;;;;14.17;9.90;;;22.90;1.00;;;;;;5053232;28;20197;-86
2022/08/26 06:10:44;;;;;;;13.83;9.40;;;22.90;1.00;;;;;;5058155;28;20182;-84
2022/08/26 06:13:10;;;;;;;14.53;9.80;;;23.00;1.00;;;;;;5063549;28;20502;-84
2022/08/26 06:15:46;;;;;;;15.07;10.20;;;23.00;1.00;;;;;;5060395;28;20415;-78
2022/08/26 06:18:14;;;;;;;14.27;10.47;;;23.00;1.00;;;;;;5044964;28;20190;-77
2022/08/26 06:20:43;;;;;;;18.40;9.90;;;23.00;1.00;;;;;;5041235;28;20546;-78
2022/08/26 06:26:02;;;;;;;15.20;10.00;;;23.20;1.00;;;;;;5045059;28;20445;-78
2022/08/26 06:28:27;;;;;;;16.90;9.33;;;23.20;1.00;;;;;;5040031;28;20478;-78
2022/08/26 06:30:56;;;;;;;14.70;10.00;;;23.30;1.00;;;;;;5044848;28;20976;-76
2022/08/26 06:33:23;;;;;;;11.73;9.43;;;23.40;1.00;;;;;;5036791;28;20188;-78
2022/08/26 06:35:49;;;;;;;11.67;9.80;;;23.50;1.00;;;;;;5040392;28;20532;-78
2022/08/26 06:38:16;;;;;;;14.30;10.10;;;23.20;1.00;;;;;;5045278;28;20463;-78
2022/08/26 06:40:47;;;;;;;17.70;9.97;;;23.40;1.00;;;;;;5041597;28;20447;-78
2022/08/26 06:43:18;;;;;;;12.70;9.73;;;23.80;1.00;;;;;;5039474;28;20490;-78
2022/08/26 06:45:44;;;;;;;14.73;10.33;;;24.00;1.00;;;;;;5042309;28;20443;-78
2022/08/26 06:48:14;;;;;;;14.70;9.30;;;24.10;1.00;;;;;;5040750;28;20510;-78
2022/08/26 06:50:40;;;;;;;12.40;9.43;;;24.40;1.00;;;;;;5041136;28;20446;-77
2022/08/26 06:53:07;;;;;;;14.53;9.23;;;24.70;1.00;;;;;;5044485;28;20509;-77
2022/08/26 06:55:37;;;;;;;16.57;10.33;;;24.90;1.00;;;;;;5046124;28;20436;-78
2022/08/26 06:58:03;;;;;;;11.90;9.00;;;25.10;1.00;;;;;;5041143;28;20462;-79
2022/08/26 07:00:31;;;;;;;19.00;9.97;;;25.50;1.00;;;;;;5046679;28;20763;-78
2022/08/26 07:02:56;;;;;;;21.60;10.70;;;25.50;1.00;;;;;;5036149;28;20216;-78
2022/08/26 07:05:22;;;;;;;19.63;11.70;;;25.80;1.00;;;;;;5041150;28;20490;-79
2022/08/26 07:07:48;;;;;;;16.20;10.70;;;25.90;1.00;;;;;;5050353;28;20766;-78
2022/08/26 07:10:14;;;;;;;22.33;10.80;;;26.00;1.00;;;;;;5047475;28;20204;-78
2022/08/26 07:12:39;;;;;;;23.90;12.20;;;26.10;1.00;;;;;;5042876;28;20415;-78
2022/08/26 07:15:05;;;;;;;21.03;11.67;;;26.30;1.00;;;;;;5041439;28;20554;-79
2022/08/26 07:17:31;;;;;;;16.70;10.53;;;26.50;1.00;;;;;;5037636;28;20202;-78
2022/08/26 07:19:56;;;;;;;21.00;10.87;;;26.80;1.00;;;;;;5045160;28;20191;-78
2022/08/26 07:22:22;;;;;;;16.90;10.60;;;27.10;1.00;;;;;;5038992;28;20234;-78
2022/08/26 07:24:47;;;;;;;16.23;11.10;;;27.20;1.00;;;;;;5038448;28;20201;-78
2022/08/26 07:27:15;;;;;;;14.90;10.27;;;27.20;1.00;;;;;;5050023;28;20220;-78
2022/08/26 07:29:42;;;;;;;24.57;11.00;;;27.20;1.00;;;;;;5041108;28;20205;-77
2022/08/26 07:32:09;;;;;;;28.98;12.30;;;27.60;1.00;;;;;;5037661;28;21230;-77
2022/08/26 07:34:36;;;;;;;19.93;10.53;;;28.00;1.00;;;;;;5046755;28;20211;-79
2022/08/26 07:37:03;;;;;;;22.40;11.67;;;28.50;1.00;;;;;;5044701;28;20203;-78
2022/08/26 07:39:29;;;;;;;17.40;12.30;;;28.60;1.00;;;;;;5052032;28;20177;-79
2022/08/26 07:41:55;;;;;;;16.37;11.30;;;28.80;1.00;;;;;;5035662;28;20276;-79
2022/08/26 07:44:21;;;;;;;15.33;12.43;;;29.90;1.00;;;;;;5049974;28;20251;-79
2022/08/26 07:46:47;;;;;;;16.90;11.35;;;30.80;1.00;;;;;;5056955;28;20176;-79
2022/08/26 07:49:13;;;;;;;22.55;11.73;;;31.50;1.00;;;;;;5058058;28;20196;-79
2022/08/26 07:51:39;;;;;;;15.05;10.95;;;31.70;1.00;;;;;;5059563;28;20174;-79
2022/08/26 07:54:05;;;;;;;23.30;10.73;;;31.40;1.00;;;;;;5069814;28;20550;-79
2022/08/26 07:56:31;;;;;;;20.17;11.35;;;31.10;1.00;;;;;;5077141;28;20168;-79
2022/08/26 07:58:57;;;;;;;18.95;10.98;;;31.00;1.00;;;;;;5076918;28;20196;-79
2022/08/26 08:01:24;;;;;;;57.35;13.13;;;31.40;1.00;;;;;;5066047;28;20169;-79
2022/08/26 08:03:52;;;;;;;34.60;11.88;;;32.30;1.00;;;;;;5053626;28;20223;-79
2022/08/26 08:06:20;;;;;;;18.27;9.80;;;33.50;1.00;;;;;;5057799;28;20176;-79
2022/08/26 08:08:46;;;;;;;21.33;9.50;;;34.40;1.00;;;;;;5059012;28;20192;-80
2022/08/26 08:11:11;;;;;;;15.32;8.65;;;35.10;1.00;;;;;;5060027;28;20400;-79
2022/08/26 08:13:37;;;;;;;12.32;8.55;;;35.20;1.00;;;;;;5059633;28;20197;-79
2022/08/26 08:16:04;;;;;;;15.50;8.90;;;34.80;1.00;;;;;;5058205;28;20168;-79
2022/08/26 08:18:29;;;;;;;10.77;8.15;;;34.60;1.00;;;;;;5058449;28;20177;-79
2022/08/26 08:20:55;;;;;;;14.65;8.25;;;34.70;1.00;;;;;;5055397;28;20203;-79
2022/08/26 08:23:21;;;;;;;13.80;9.35;;;34.70;1.00;;;;;;5062704;28;20280;-80
2022/08/26 08:25:47;;;;;;;14.98;8.55;;;34.60;1.00;;;;;;5058321;28;20175;-79
2022/08/26 08:28:13;;;;;;;15.57;9.68;;;34.80;1.00;;;;;;5058449;28;20230;-79
2022/08/26 08:30:40;;;;;;;15.07;8.88;;;34.60;1.00;;;;;;5057861;28;20173;-79
2022/08/26 08:33:06;;;;;;;11.68;8.70;;;34.50;1.00;;;;;;5057428;28;20489;-79
2022/08/26 08:35:33;;;;;;;13.85;8.40;;;34.70;1.00;;;;;;5057973;28;20192;-80
2022/08/26 08:37:59;;;;;;;13.90;8.77;;;35.10;1.00;;;;;;5059078;28;20226;-80
2022/08/26 08:40:26;;;;;;;16.13;9.18;;;35.50;1.00;;;;;;5059052;28;20164;-79
2022/08/26 08:43:03;;;;;;;12.65;8.82;;;36.10;1.00;;;;;;5054953;28;20191;-79
2022/08/26 08:45:38;;;;;;;13.05;8.80;;;36.90;1.00;;;;;;5054663;28;20238;-79
2022/08/26 08:48:13;;;;;;;19.58;8.50;;;37.40;1.00;;;;;;5040161;28;20291;-80
2022/08/26 08:50:44;;;;;;;14.48;8.52;;;38.20;1.00;;;;;;5040282;28;20173;-80
2022/08/26 08:53:17;;;;;;;16.75;7.88;;;39.20;1.00;;;;;;5072093;28;20175;-80
2022/08/26 08:56:02;;;;;;;12.32;8.15;;;40.10;1.00;;;;;;5082452;28;20168;-80
2022/08/26 08:58:42;;;;;;;11.27;7.63;;;40.60;1.00;;;;;;5082738;28;20164;-80
2022/08/26 09:01:16;;;;;;;14.65;8.48;;;40.10;1.00;;;;;;5080668;28;20191;-80
2022/08/26 09:03:59;;;;;;;14.10;7.63;;;39.20;1.00;;;;;;5081221;28;20209;-80
2022/08/26 09:06:25;;;;;;;13.02;8.73;;;38.30;1.00;;;;;;5080462;28;20218;-80
2022/08/26 09:08:51;;;;;;;11.13;7.85;;;37.70;1.00;;;;;;5079647;28;20207;-80
2022/08/26 09:11:18;;;;;;;12.80;8.63;;;37.00;1.00;;;;;;5056911;28;20425;-80
2022/08/26 09:13:49;;;;;;;16.08;8.00;;;36.70;1.00;;;;;;5037127;28;20199;-80
2022/08/26 09:16:45;;;;;;;12.00;8.38;;;36.70;1.00;;;;;;5035850;28;20180;-79
2022/08/26 09:19:39;;;;;;;11.40;8.60;;;36.60;1.00;;;;;;5038057;28;20189;-80
2022/08/26 09:22:04;;;;;;;15.23;8.57;;;36.40;1.00;;;;;;5058758;28;20673;-79
2022/08/26 09:24:33;;;;;;;15.00;8.25;;;36.20;1.00;;;;;;5057909;28;20220;-79
2022/08/26 09:26:59;;;;;;;13.38;8.60;;;36.00;1.00;;;;;;5056906;28;20238;-79
2022/08/26 09:29:29;;;;;;;15.93;8.27;;;35.60;1.00;;;;;;5056773;28;20201;-79
2022/08/26 09:32:23;;;;;;;11.77;7.97;;;35.60;1.00;;;;;;5056461;28;20183;-79
2022/08/26 09:35:02;;;;;;;9.88;7.82;;;36.10;1.00;;;;;;5057552;28;20527;-79
2022/08/26 09:37:43;;;;;;;10.98;8.07;;;36.70;1.00;;;;;;5058274;28;20149;-80
2022/08/26 09:40:16;;;;;;;12.30;8.27;;;37.20;1.00;;;;;;5058373;28;20161;-79
2022/08/26 09:42:41;;;;;;;10.20;8.10;;;36.90;1.00;;;;;;5058681;28;20187;-79
2022/08/26 09:45:09;;;;;;;11.98;8.32;;;36.90;1.00;;;;;;5056812;28;20192;-79
2022/08/26 09:47:40;;;;;;;12.73;8.02;;;37.40;1.00;;;;;;5056460;28;20164;-79
2022/08/26 09:50:22;;;;;;;14.32;8.57;;;37.70;1.00;;;;;;5057378;28;20172;-80
2022/08/26 09:53:02;;;;;;;9.77;8.48;;;37.90;1.00;;;;;;5067559;28;20176;-80
2022/08/26 09:55:27;;;;;;;14.63;8.10;;;38.10;1.00;;;;;;5078884;28;20176;-80
2022/08/26 09:57:54;;;;;;;12.57;8.10;;;38.20;1.00;;;;;;5079585;28;20222;-80
2022/08/26 10:00:30;;;;;;;13.52;7.53;;;38.70;1.00;;;;;;5080067;28;20226;-80
2022/08/26 10:02:58;;;;;;;10.07;7.20;;;38.70;1.00;;;;;;5053344;28;20179;-79
2022/08/26 10:05:43;;;;;;;11.30;7.10;;;38.80;1.00;;;;;;5062464;28;20476;-80
2022/08/26 10:08:41;;;;;;;13.52;7.78;;;39.50;1.00;;;;;;5064839;28;20197;-79
2022/08/26 10:11:37;;;;;;;13.35;7.70;;;39.70;1.00;;;;;;5064253;28;20181;-79
2022/08/26 10:14:34;;;;;;;9.95;7.10;;;40.40;1.00;;;;;;5062094;28;20210;-80
2022/08/26 10:17:09;;;;;;;10.68;7.50;;;41.10;1.00;;;;;;5065300;28;20188;-80
2022/08/26 10:19:54;;;;;;;9.52;7.47;;;42.00;1.00;;;;;;5066877;28;20176;-80
2022/08/26 10:22:31;;;;;;;11.00;6.85;;;42.90;1.00;;;;;;5069594;28;20184;-80
2022/08/26 10:25:02;;;;;;;13.07;7.57;;;43.90;1.00;;;;;;5087909;28;20200;-80
2022/08/26 10:27:59;;;;;;;10.38;6.43;;;44.80;1.00;;;;;;5087446;28;20267;-79
2022/08/26 10:30:32;;;;;;;13.40;6.78;;;45.30;1.00;;;;;;5089354;28;20164;-81
2022/08/26 10:33:05;;;;;;;10.40;6.97;;;45.30;1.00;;;;;;5088150;28;20304;-79
2022/08/26 10:35:33;;;;;;;12.88;7.13;;;45.10;1.00;;;;;;5089206;28;20174;-81
2022/08/26 10:38:06;;;;;;;14.27;6.97;;;45.40;1.00;;;;;;5089387;28;20168;-80
2022/08/26 10:41:01;;;;;;;8.07;7.05;;;45.40;1.00;;;;;;5089440;28;20240;-80
2022/08/26 10:43:31;;;;;;;12.63;6.55;;;45.60;1.00;;;;;;5073847;28;20209;-80
2022/08/26 10:46:03;;;;;;;11.30;6.63;;;46.00;1.00;;;;;;5067850;28;20172;-81
2022/08/26 10:48:55;;;;;;;10.23;6.93;;;45.90;1.00;;;;;;5069708;28;20208;-80
2022/08/26 10:52:05;;;;;;;17.15;7.10;;;46.10;1.00;;;;;;5071181;28;20174;-80
2022/08/26 10:54:38;;;;;;;10.30;6.47;;;46.80;1.00;;;;;;5084678;28;20199;-81
2022/08/26 10:57:34;;;;;;;9.57;6.15;;;47.40;1.00;;;;;;5089648;28;20171;-80
2022/08/26 11:03:05;;;;;;;12.73;6.68;;;47.50;1.00;;;;;;5085264;28;20168;-80
2022/08/26 11:05:30;;;;;;;11.75;6.65;;;47.90;1.00;;;;;;5084449;28;20158;-80
2022/08/26 11:08:18;;;;;;;7.43;5.70;;;48.60;1.00;;;;;;5082117;28;20291;-80
2022/08/26 11:10:57;;;;;;;7.07;5.68;;;49.10;1.00;;;;;;5058022;28;20196;-80
2022/08/26 11:14:00;;;;;;;10.05;6.25;;;49.00;1.00;;;;;;5042204;28;20545;-80
2022/08/26 11:16:37;;;;;;;9.75;6.03;;;49.00;1.00;;;;;;5042340;28;20165;-80
2022/08/26 11:19:05;;;;;;;8.80;5.80;;;48.70;1.00;;;;;;5041452;28;20245;-80
2022/08/26 11:21:49;;;;;;;7.05;6.00;;;49.00;1.00;;;;;;5055227;28;20699;-80
2022/08/26 11:24:51;;;;;;;9.75;5.93;;;49.60;1.00;;;;;;5057517;28;20295;-80
2022/08/26 11:27:34;;;;;;;8.98;5.70;;;50.00;1.00;;;;;;5064009;28;20712;-80
2022/08/26 11:30:06;;;;;;;13.77;5.30;;;49.10;1.00;;;;;;5062495;28;20253;-80
2022/08/26 11:32:38;;;;;;;5.95;5.30;;;49.30;1.00;;;;;;5058019;28;20201;-80
2022/08/26 11:35:31;;;;;;;8.30;4.72;;;49.90;1.00;;;;;;5055454;28;20260;-80
2022/08/26 11:38:03;;;;;;;12.63;5.07;;;50.10;1.00;;;;;;5064920;28;20172;-81
2022/08/26 11:40:39;;;;;;;7.65;5.35;;;50.70;1.00;;;;;;5063933;28;20175;-80
2022/08/26 11:43:06;;;;;;;14.27;5.38;;;51.20;1.00;;;;;;5065032;28;20175;-80
2022/08/26 11:45:39;;;;;;;11.65;4.68;;;50.30;1.00;;;;;;5065071;28;20172;-80
2022/08/26 11:48:20;;;;;;;14.63;4.85;;;50.50;1.00;;;;;;5064047;28;20192;-80
2022/08/26 11:50:55;;;;;;;8.75;4.70;;;50.40;1.00;;;;;;5059667;28;20177;-80
2022/08/26 11:53:22;;;;;;;8.30;5.45;;;50.10;1.00;;;;;;5074855;28;20183;-80
2022/08/26 11:55:50;;;;;;;10.32;5.00;;;50.20;1.00;;;;;;5084853;28;20164;-80
2022/08/26 11:58:18;;;;;;;7.00;5.00;;;50.40;1.00;;;;;;5085806;28;20172;-80
2022/08/26 12:00:48;;;;;;;8.20;5.20;;;50.90;1.00;;;;;;5084644;28;20164;-80
2022/08/26 12:03:21;;;;;;;10.05;4.88;;;51.30;1.00;;;;;;5045017;28;20255;-81
2022/08/26 12:05:49;;;;;;;6.45;5.10;;;51.30;1.00;;;;;;5045461;28;20223;-79
2022/08/26 12:08:22;;;;;;;7.47;4.90;;;51.70;1.00;;;;;;5044698;28;20656;-80
2022/08/26 12:10:48;;;;;;;8.30;5.10;;;51.80;1.00;;;;;;5059802;28;20176;-80
2022/08/26 12:13:24;;;;;;;7.57;4.32;;;51.40;1.00;;;;;;5064201;28;20192;-80
2022/08/26 12:15:56;;;;;;;6.70;4.72;;;51.20;1.00;;;;;;5063512;28;20176;-80
2022/08/26 12:18:25;;;;;;;6.40;4.85;;;51.20;1.00;;;;;;5063166;28;20179;-80
2022/08/26 12:20:54;;;;;;;5.82;4.32;;;50.40;1.00;;;;;;5059878;28;20268;-80
2022/08/26 12:23:35;;;;;;;10.32;4.70;;;50.10;1.00;;;;;;5074322;28;20234;-80
2022/08/26 12:26:12;;;;;;;4.85;4.35;;;50.00;1.00;;;;;;5082701;28;20170;-80
2022/08/26 12:28:44;;;;;;;5.10;4.32;;;49.60;1.00;;;;;;5082362;28;20196;-80
2022/08/26 12:31:10;;;;;;;9.60;4.70;;;49.10;1.00;;;;;;5080683;28;20164;-80
2022/08/26 12:33:36;;;;;;;7.97;4.57;;;49.70;1.00;;;;;;5082630;28;20267;-80
2022/08/26 12:36:03;;;;;;;6.25;4.40;;;49.70;1.00;;;;;;5081517;28;20168;-80
2022/08/26 12:38:30;;;;;;;11.07;4.40;;;49.60;1.00;;;;;;5082410;28;20222;-80
2022/08/26 12:40:56;;;;;;;5.72;4.35;;;49.20;1.00;;;;;;5081885;28;20176;-80
2022/08/26 12:43:43;;;;;;;9.77;4.70;;;49.20;1.00;;;;;;5081892;28;20198;-80
2022/08/26 12:46:23;;;;;;;5.38;4.10;;;49.20;1.00;;;;;;5082199;28;20168;-80
2022/08/26 12:48:48;;;;;;;6.07;4.15;;;49.60;1.00;;;;;;5081010;28;20206;-80
2022/08/26 12:51:21;;;;;;;4.63;4.07;;;49.10;1.00;;;;;;5068045;28;20256;-80
2022/08/26 12:53:47;;;;;;;8.80;4.32;;;49.30;1.00;;;;;;5061465;28;20189;-80
2022/08/26 12:56:45;;;;;;;5.72;4.00;;;49.10;1.00;;;;;;5061518;28;20176;-80
2022/08/26 12:59:16;;;;;;;4.65;3.97;;;48.20;1.00;;;;;;5047611;28;20184;-80
2022/08/26 13:01:44;;;;;;;6.70;4.40;;;48.00;1.00;;;;;;5051366;28;20180;-81
2022/08/26 13:04:35;;;;;;;4.78;3.88;;;47.90;1.00;;;;;;5039043;28;20197;-79
2022/08/26 13:07:19;;;;;;;6.28;4.20;;;47.00;1.00;;;;;;5039403;28;20165;-79
2022/08/26 13:09:45;;;;;;;6.38;4.43;;;45.50;1.00;;;;;;5037555;28;20304;-80
2022/08/26 13:12:10;;;;;;;6.30;4.30;;;43.80;1.00;;;;;;5034687;28;20289;-79